sensor_id;sensor_type;location;lat;lon;timestamp;pressure;altitude;pressure_sealevel;temperature;humidity
28027;BME280;15344;52.342;-1.290;2023-05-24T00:01:23;101234.10;;;16.50;55.19
28027;BME280;15344;52.342;-1.290;2023-05-24T00:03:49;101233.16;;;16.97;54.82
28027;BME280;15344;52.342;-1.290;2023-05-24T00:06:14;101235.51;;;17.39;54.05
28027;BME280;15344;52.342;-1.290;2023-05-24T00:08:39;101240.29;;;17.37;53.79
28027;BME280;15344;52.342;-1.290;2023-05-24T00:11:05;101240.97;;;15.76;57.59
28027;BME280;15344;52.342;-1.290;2023-05-24T00:13:31;101243.48;;;16.81;55.17
28027;BME280;15344;52.342;-1.290;2023-05-24T00:15:56;101237.56;;;15.85;57.65
28027;BME280;15344;52.342;-1.290;2023-05-24T00:18:22;101239.93;;;16.27;55.82
28027;BME280;15344;52.342;-1.290;2023-05-24T00:20:47;101238.57;;;17.18;55.35
28027;BME280;15344;52.342;-1.290;2023-05-24T00:23:13;101236.52;;;17.33;54.19
28027;BME280;15344;52.342;-1.290;2023-05-24T00:25:38;101238.76;;;17.16;54.17
28027;BME280;15344;52.342;-1.290;2023-05-24T00:28:03;101237.49;;;17.02;54.79
28027;BME280;15344;52.342;-1.290;2023-05-24T00:30:29;101234.85;;;16.98;55.45
28027;BME280;15344;52.342;-1.290;2023-05-24T00:32:55;101232.92;;;17.22;53.89
28027;BME280;15344;52.342;-1.290;2023-05-24T00:35:20;101230.81;;;15.90;58.95
28027;BME280;15344;52.342;-1.290;2023-05-24T00:37:45;101227.71;;;16.31;57.16
28027;BME280;15344;52.342;-1.290;2023-05-24T00:40:11;101221.86;;;16.49;56.57
28027;BME280;15344;52.342;-1.290;2023-05-24T00:42:36;101219.18;;;16.52;57.37
28027;BME280;15344;52.342;-1.290;2023-05-24T00:45:02;101219.49;;;16.93;56.21
28027;BME280;15344;52.342;-1.290;2023-05-24T00:47:27;101218.84;;;16.55;57.15
28027;BME280;15344;52.342;-1.290;2023-05-24T00:49:52;101218.90;;;15.92;58.20
28027;BME280;15344;52.342;-1.290;2023-05-24T00:52:17;101221.76;;;16.39;57.20
28027;BME280;15344;52.342;-1.290;2023-05-24T00:54:43;101223.63;;;15.80;58.45
28027;BME280;15344;52.342;-1.290;2023-05-24T00:57:08;101227.18;;;16.65;57.75
28027;BME280;15344;52.342;-1.290;2023-05-24T00:59:34;101227.81;;;16.11;58.03
28027;BME280;15344;52.342;-1.290;2023-05-24T01:01:58;101231.71;;;16.95;56.49
28027;BME280;15344;52.342;-1.290;2023-05-24T01:04:23;101235.77;;;16.20;58.24
28027;BME280;15344;52.342;-1.290;2023-05-24T01:06:59;101238.14;;;14.62;63.90
28027;BME280;15344;52.342;-1.290;2023-05-24T01:09:24;101229.63;;;16.13;59.22
28027;BME280;15344;52.342;-1.290;2023-05-24T01:11:51;101228.17;;;16.15;60.36
28027;BME280;15344;52.342;-1.290;2023-05-24T01:14:14;101231.16;;;16.33;59.51
28027;BME280;15344;52.342;-1.290;2023-05-24T01:16:38;101229.52;;;16.39;59.40
28027;BME280;15344;52.342;-1.290;2023-05-24T01:18:58;101233.86;;;16.68;57.40
28027;BME280;15344;52.342;-1.290;2023-05-24T01:21:34;101234.34;;;16.57;58.71
28027;BME280;15344;52.342;-1.290;2023-05-24T01:23:53;101230.24;;;16.70;58.23
28027;BME280;15344;52.342;-1.290;2023-05-24T01:26:18;101235.09;;;17.10;56.23
28027;BME280;15344;52.342;-1.290;2023-05-24T01:28:38;101239.82;;;16.12;59.06
28027;BME280;15344;52.342;-1.290;2023-05-24T01:31:04;101240.22;;;17.09;56.32
28027;BME280;15344;52.342;-1.290;2023-05-24T01:33:29;101244.78;;;15.87;59.36
28027;BME280;15344;52.342;-1.290;2023-05-24T01:35:54;101245.01;;;16.87;57.73
28027;BME280;15344;52.342;-1.290;2023-05-24T01:38:20;101242.68;;;16.71;58.12
28027;BME280;15344;52.342;-1.290;2023-05-24T01:40:46;101243.16;;;16.95;57.42
28027;BME280;15344;52.342;-1.290;2023-05-24T01:43:14;101240.72;;;16.52;58.84
28027;BME280;15344;52.342;-1.290;2023-05-24T01:45:43;101234.68;;;17.02;56.57
28027;BME280;15344;52.342;-1.290;2023-05-24T01:48:06;101232.69;;;16.71;58.03
28027;BME280;15344;52.342;-1.290;2023-05-24T01:50:30;101228.59;;;16.08;59.79
28027;BME280;15344;52.342;-1.290;2023-05-24T01:52:52;101227.97;;;16.80;57.16
28027;BME280;15344;52.342;-1.290;2023-05-24T01:55:17;101225.20;;;17.12;56.33
28027;BME280;15344;52.342;-1.290;2023-05-24T01:57:43;101226.05;;;17.42;57.13
28027;BME280;15344;52.342;-1.290;2023-05-24T02:00:09;101225.68;;;16.80;57.52
28027;BME280;15344;52.342;-1.290;2023-05-24T02:02:33;101226.00;;;16.19;59.77
28027;BME280;15344;52.342;-1.290;2023-05-24T02:04:58;101224.23;;;16.83;58.42
28027;BME280;15344;52.342;-1.290;2023-05-24T02:07:23;101219.98;;;16.72;57.52
28027;BME280;15344;52.342;-1.290;2023-05-24T02:09:49;101219.42;;;17.19;57.07
28027;BME280;15344;52.342;-1.290;2023-05-24T02:12:15;101215.92;;;17.00;56.92
28027;BME280;15344;52.342;-1.290;2023-05-24T02:14:40;101209.37;;;16.89;57.14
28027;BME280;15344;52.342;-1.290;2023-05-24T02:17:05;101207.87;;;17.14;57.04
28027;BME280;15344;52.342;-1.290;2023-05-24T02:19:31;101209.17;;;16.93;57.35
28027;BME280;15344;52.342;-1.290;2023-05-24T02:21:56;101205.93;;;17.29;56.46
28027;BME280;15344;52.342;-1.290;2023-05-24T02:24:22;101207.85;;;16.61;58.02
28027;BME280;15344;52.342;-1.290;2023-05-24T02:26:47;101206.19;;;16.34;59.06
28027;BME280;15344;52.342;-1.290;2023-05-24T02:29:13;101209.70;;;17.13;57.23
28027;BME280;15344;52.342;-1.290;2023-05-24T02:31:38;101209.91;;;16.36;59.30
28027;BME280;15344;52.342;-1.290;2023-05-24T02:34:04;101210.25;;;16.67;58.73
28027;BME280;15344;52.342;-1.290;2023-05-24T02:36:29;101213.49;;;16.44;59.70
28027;BME280;15344;52.342;-1.290;2023-05-24T02:38:55;101214.96;;;16.89;58.47
28027;BME280;15344;52.342;-1.290;2023-05-24T02:41:19;101217.83;;;15.72;61.38
28027;BME280;15344;52.342;-1.290;2023-05-24T02:43:45;101223.68;;;16.28;60.30
28027;BME280;15344;52.342;-1.290;2023-05-24T02:46:10;101225.98;;;16.47;60.57
28027;BME280;15344;52.342;-1.290;2023-05-24T02:48:36;101232.60;;;15.78;63.12
28027;BME280;15344;52.342;-1.290;2023-05-24T02:51:01;101234.00;;;16.66;59.97
28027;BME280;15344;52.342;-1.290;2023-05-24T02:53:27;101233.58;;;16.42;60.56
28027;BME280;15344;52.342;-1.290;2023-05-24T02:55:52;101237.25;;;16.78;60.27
28027;BME280;15344;52.342;-1.290;2023-05-24T02:58:18;101239.22;;;15.15;63.65
28027;BME280;15344;52.342;-1.290;2023-05-24T03:00:43;101234.29;;;16.00;61.70
28027;BME280;15344;52.342;-1.290;2023-05-24T03:03:09;101235.52;;;15.06;64.79
28027;BME280;15344;52.342;-1.290;2023-05-24T03:05:34;101227.90;;;15.76;63.53
28027;BME280;15344;52.342;-1.290;2023-05-24T03:07:59;101233.83;;;16.46;61.46
28027;BME280;15344;52.342;-1.290;2023-05-24T03:10:25;101228.88;;;17.29;59.62
28027;BME280;15344;52.342;-1.290;2023-05-24T03:12:50;101231.07;;;16.99;59.40
28027;BME280;15344;52.342;-1.290;2023-05-24T03:15:15;101226.64;;;17.02;59.80
28027;BME280;15344;52.342;-1.290;2023-05-24T03:17:40;101223.94;;;17.18;58.88
28027;BME280;15344;52.342;-1.290;2023-05-24T03:20:07;101222.76;;;16.25;61.04
28027;BME280;15344;52.342;-1.290;2023-05-24T03:22:30;101220.58;;;16.72;61.13
28027;BME280;15344;52.342;-1.290;2023-05-24T03:24:56;101218.44;;;16.62;60.67
28027;BME280;15344;52.342;-1.290;2023-05-24T03:27:22;101214.28;;;17.14;59.50
28027;BME280;15344;52.342;-1.290;2023-05-24T03:29:47;101211.90;;;16.17;61.50
28027;BME280;15344;52.342;-1.290;2023-05-24T03:32:12;101214.38;;;16.04;61.24
28027;BME280;15344;52.342;-1.290;2023-05-24T03:34:38;101211.60;;;17.00;60.54
28027;BME280;15344;52.342;-1.290;2023-05-24T03:37:04;101209.13;;;16.61;60.73
28027;BME280;15344;52.342;-1.290;2023-05-24T03:39:29;101207.54;;;16.25;62.12
28027;BME280;15344;52.342;-1.290;2023-05-24T03:41:54;101207.79;;;16.46;61.73
28027;BME280;15344;52.342;-1.290;2023-05-24T03:44:19;101205.48;;;16.11;61.81
28027;BME280;15344;52.342;-1.290;2023-05-24T03:46:45;101203.47;;;16.72;59.89
28027;BME280;15344;52.342;-1.290;2023-05-24T03:49:10;101200.75;;;16.08;63.44
28027;BME280;15344;52.342;-1.290;2023-05-24T03:51:36;101200.81;;;14.83;68.41
28027;BME280;15344;52.342;-1.290;2023-05-24T03:54:01;101195.18;;;16.11;63.56
28027;BME280;15344;52.342;-1.290;2023-05-24T03:56:26;101188.58;;;16.66;62.53
28027;BME280;15344;52.342;-1.290;2023-05-24T03:58:52;101190.78;;;16.50;62.51
28027;BME280;15344;52.342;-1.290;2023-05-24T04:01:17;101193.05;;;16.43;61.33
28027;BME280;15344;52.342;-1.290;2023-05-24T04:03:43;101198.46;;;16.81;60.56
28027;BME280;15344;52.342;-1.290;2023-05-24T04:06:07;101200.78;;;16.46;62.33
28027;BME280;15344;52.342;-1.290;2023-05-24T04:08:33;101201.10;;;16.69;62.08
28027;BME280;15344;52.342;-1.290;2023-05-24T04:10:59;101199.69;;;16.45;62.25
28027;BME280;15344;52.342;-1.290;2023-05-24T04:13:25;101194.28;;;15.51;64.82
28027;BME280;15344;52.342;-1.290;2023-05-24T04:15:50;101196.52;;;16.97;61.57
28027;BME280;15344;52.342;-1.290;2023-05-24T04:18:15;101199.67;;;16.32;62.26
28027;BME280;15344;52.342;-1.290;2023-05-24T04:20:41;101206.72;;;16.90;60.40
28027;BME280;15344;52.342;-1.290;2023-05-24T04:23:07;101209.53;;;16.76;61.17
28027;BME280;15344;52.342;-1.290;2023-05-24T04:25:32;101214.35;;;17.12;60.20
28027;BME280;15344;52.342;-1.290;2023-05-24T04:27:58;101219.07;;;16.19;62.94
28027;BME280;15344;52.342;-1.290;2023-05-24T04:30:23;101217.90;;;17.33;60.30
28027;BME280;15344;52.342;-1.290;2023-05-24T04:32:49;101209.67;;;16.72;61.58
28027;BME280;15344;52.342;-1.290;2023-05-24T04:35:14;101206.13;;;17.19;60.50
28027;BME280;15344;52.342;-1.290;2023-05-24T04:37:39;101208.69;;;17.09;60.02
28027;BME280;15344;52.342;-1.290;2023-05-24T04:40:06;101202.68;;;16.82;60.15
28027;BME280;15344;52.342;-1.290;2023-05-24T04:42:30;101196.13;;;17.06;60.14
28027;BME280;15344;52.342;-1.290;2023-05-24T04:44:56;101196.64;;;17.40;58.98
28027;BME280;15344;52.342;-1.290;2023-05-24T04:47:21;101201.39;;;17.17;59.50
28027;BME280;15344;52.342;-1.290;2023-05-24T04:49:46;101199.98;;;17.26;59.51
28027;BME280;15344;52.342;-1.290;2023-05-24T04:52:11;101207.46;;;16.42;61.20
28027;BME280;15344;52.342;-1.290;2023-05-24T04:54:37;101210.06;;;16.77;60.69
28027;BME280;15344;52.342;-1.290;2023-05-24T04:57:03;101211.73;;;16.50;61.56
28027;BME280;15344;52.342;-1.290;2023-05-24T04:59:28;101206.43;;;17.09;60.44
28027;BME280;15344;52.342;-1.290;2023-05-24T05:01:53;101207.16;;;17.00;60.14
28027;BME280;15344;52.342;-1.290;2023-05-24T05:04:18;101202.78;;;16.48;60.87
28027;BME280;15344;52.342;-1.290;2023-05-24T05:06:44;101202.39;;;17.27;59.87
28027;BME280;15344;52.342;-1.290;2023-05-24T05:09:10;101205.04;;;17.10;60.93
28027;BME280;15344;52.342;-1.290;2023-05-24T05:11:36;101212.13;;;16.07;64.04
28027;BME280;15344;52.342;-1.290;2023-05-24T05:14:02;101212.21;;;15.58;65.26
28027;BME280;15344;52.342;-1.290;2023-05-24T05:16:27;101216.73;;;16.72;63.84
28027;BME280;15344;52.342;-1.290;2023-05-24T05:18:52;101221.34;;;17.10;62.70
28027;BME280;15344;52.342;-1.290;2023-05-24T05:21:18;101227.62;;;16.40;62.56
28027;BME280;15344;52.342;-1.290;2023-05-24T05:23:43;101232.31;;;16.83;62.32
28027;BME280;15344;52.342;-1.290;2023-05-24T05:26:08;101237.67;;;16.79;63.22
28027;BME280;15344;52.342;-1.290;2023-05-24T05:28:33;101234.95;;;16.65;63.93
28027;BME280;15344;52.342;-1.290;2023-05-24T05:30:58;101235.33;;;16.74;63.05
28027;BME280;15344;52.342;-1.290;2023-05-24T05:33:24;101238.48;;;15.60;66.97
28027;BME280;15344;52.342;-1.290;2023-05-24T05:35:49;101239.44;;;15.92;65.91
28027;BME280;15344;52.342;-1.290;2023-05-24T05:38:14;101234.04;;;17.13;63.25
28027;BME280;15344;52.342;-1.290;2023-05-24T05:40:41;101235.10;;;17.16;63.05
28027;BME280;15344;52.342;-1.290;2023-05-24T05:43:06;101235.13;;;17.40;61.73
28027;BME280;15344;52.342;-1.290;2023-05-24T05:45:31;101239.72;;;17.49;62.16
28027;BME280;15344;52.342;-1.290;2023-05-24T05:47:57;101243.44;;;17.15;63.10
28027;BME280;15344;52.342;-1.290;2023-05-24T05:50:22;101248.42;;;16.48;66.49
28027;BME280;15344;52.342;-1.290;2023-05-24T05:52:48;101243.89;;;16.07;67.40
28027;BME280;15344;52.342;-1.290;2023-05-24T05:55:14;101242.44;;;15.75;70.16
28027;BME280;15344;52.342;-1.290;2023-05-24T05:57:40;101242.14;;;15.34;74.11
28027;BME280;15344;52.342;-1.290;2023-05-24T06:00:07;101240.99;;;15.72;73.37
28027;BME280;15344;52.342;-1.290;2023-05-24T06:02:31;101247.13;;;16.22;71.80
28027;BME280;15344;52.342;-1.290;2023-05-24T06:04:56;101252.96;;;13.89;80.81
28027;BME280;15344;52.342;-1.290;2023-05-24T06:07:21;101258.39;;;15.19;79.35
28027;BME280;15344;52.342;-1.290;2023-05-24T06:09:46;101255.47;;;14.93;83.19
28027;BME280;15344;52.342;-1.290;2023-05-24T06:12:12;101257.68;;;14.60;85.38
28027;BME280;15344;52.342;-1.290;2023-05-24T06:14:37;101259.70;;;13.71;90.44
28027;BME280;15344;52.342;-1.290;2023-05-24T06:17:03;101258.41;;;14.37;85.17
28027;BME280;15344;52.342;-1.290;2023-05-24T06:19:28;101261.78;;;13.43;92.80
28027;BME280;15344;52.342;-1.290;2023-05-24T06:21:54;101262.31;;;12.62;98.84
28027;BME280;15344;52.342;-1.290;2023-05-24T06:24:19;101262.23;;;13.98;92.86
28027;BME280;15344;52.342;-1.290;2023-05-24T06:26:44;101264.66;;;13.68;95.28
28027;BME280;15344;52.342;-1.290;2023-05-24T06:29:09;101263.52;;;13.10;99.12
28027;BME280;15344;52.342;-1.290;2023-05-24T06:31:35;101257.12;;;13.05;100.00
28027;BME280;15344;52.342;-1.290;2023-05-24T06:34:00;101258.28;;;13.61;94.97
28027;BME280;15344;52.342;-1.290;2023-05-24T06:36:25;101258.48;;;14.68;91.63
28027;BME280;15344;52.342;-1.290;2023-05-24T06:38:51;101263.59;;;14.19;90.03
28027;BME280;15344;52.342;-1.290;2023-05-24T06:41:17;101271.70;;;14.25;90.74
28027;BME280;15344;52.342;-1.290;2023-05-24T06:43:42;101271.98;;;15.93;83.14
28027;BME280;15344;52.342;-1.290;2023-05-24T06:46:08;101269.86;;;15.88;82.79
28027;BME280;15344;52.342;-1.290;2023-05-24T06:48:33;101267.95;;;15.43;83.31
28027;BME280;15344;52.342;-1.290;2023-05-24T06:50:58;101264.90;;;15.78;81.50
28027;BME280;15344;52.342;-1.290;2023-05-24T06:53:24;101265.76;;;15.00;85.64
28027;BME280;15344;52.342;-1.290;2023-05-24T06:55:50;101265.15;;;15.22;83.14
28027;BME280;15344;52.342;-1.290;2023-05-24T06:58:15;101262.49;;;15.34;83.91
28027;BME280;15344;52.342;-1.290;2023-05-24T07:00:41;101258.26;;;16.25;76.76
28027;BME280;15344;52.342;-1.290;2023-05-24T07:03:07;101265.17;;;17.71;71.74
28027;BME280;15344;52.342;-1.290;2023-05-24T07:05:31;101269.47;;;16.90;71.29
28027;BME280;15344;52.342;-1.290;2023-05-24T07:07:57;101270.49;;;17.33;72.98
28027;BME280;15344;52.342;-1.290;2023-05-24T07:10:22;101261.99;;;18.68;67.89
28027;BME280;15344;52.342;-1.290;2023-05-24T07:12:47;101266.87;;;19.55;64.54
28027;BME280;15344;52.342;-1.290;2023-05-24T07:15:13;101263.72;;;18.90;63.16
28027;BME280;15344;52.342;-1.290;2023-05-24T07:17:38;101263.89;;;19.03;61.23
28027;BME280;15344;52.342;-1.290;2023-05-24T07:20:03;101258.92;;;20.23;59.73
28027;BME280;15344;52.342;-1.290;2023-05-24T07:22:28;101263.93;;;19.00;59.39
28027;BME280;15344;52.342;-1.290;2023-05-24T07:24:53;101260.68;;;21.28;59.07
28027;BME280;15344;52.342;-1.290;2023-05-24T07:27:19;101254.57;;;22.99;54.54
28027;BME280;15344;52.342;-1.290;2023-05-24T07:29:44;101253.30;;;23.45;51.25
28027;BME280;15344;52.342;-1.290;2023-05-24T07:32:09;101252.01;;;24.03;49.52
28027;BME280;15344;52.342;-1.290;2023-05-24T07:34:35;101248.13;;;24.32;47.93
28027;BME280;15344;52.342;-1.290;2023-05-24T07:37:01;101257.98;;;25.25;43.59
28027;BME280;15344;52.342;-1.290;2023-05-24T07:39:27;101259.83;;;21.44;48.25
28027;BME280;15344;52.342;-1.290;2023-05-24T07:41:52;101263.29;;;19.81;51.84
28027;BME280;15344;52.342;-1.290;2023-05-24T07:44:18;101263.47;;;20.14;51.89
28027;BME280;15344;52.342;-1.290;2023-05-24T07:46:43;101264.86;;;21.03;51.27
28027;BME280;15344;52.342;-1.290;2023-05-24T07:49:09;101262.06;;;20.84;53.96
28027;BME280;15344;52.342;-1.290;2023-05-24T07:51:34;101265.83;;;20.13;54.88
28027;BME280;15344;52.342;-1.290;2023-05-24T07:54:00;101267.57;;;21.61;49.68
28027;BME280;15344;52.342;-1.290;2023-05-24T07:56:24;101265.75;;;21.63;49.94
28027;BME280;15344;52.342;-1.290;2023-05-24T07:58:49;101269.82;;;19.85;51.66
28027;BME280;15344;52.342;-1.290;2023-05-24T08:01:15;101272.67;;;18.58;57.18
28027;BME280;15344;52.342;-1.290;2023-05-24T08:03:41;101260.46;;;19.95;54.43
28027;BME280;15344;52.342;-1.290;2023-05-24T08:06:05;101261.74;;;19.55;55.74
28027;BME280;15344;52.342;-1.290;2023-05-24T08:08:31;101262.25;;;20.80;55.99
28027;BME280;15344;52.342;-1.290;2023-05-24T08:10:56;101261.75;;;21.39;54.96
28027;BME280;15344;52.342;-1.290;2023-05-24T08:13:21;101258.02;;;21.51;53.62
28027;BME280;15344;52.342;-1.290;2023-05-24T08:15:46;101269.37;;;19.22;56.05
28027;BME280;15344;52.342;-1.290;2023-05-24T08:18:11;101272.00;;;20.91;54.39
28027;BME280;15344;52.342;-1.290;2023-05-24T08:20:37;101276.52;;;19.58;54.49
28027;BME280;15344;52.342;-1.290;2023-05-24T08:23:02;101275.96;;;19.73;54.00
28027;BME280;15344;52.342;-1.290;2023-05-24T08:25:27;101277.26;;;18.74;55.39
28027;BME280;15344;52.342;-1.290;2023-05-24T08:27:53;101271.04;;;20.69;53.13
28027;BME280;15344;52.342;-1.290;2023-05-24T08:30:18;101273.63;;;21.87;53.68
28027;BME280;15344;52.342;-1.290;2023-05-24T08:32:43;101270.39;;;22.19;49.21
28027;BME280;15344;52.342;-1.290;2023-05-24T08:35:08;101269.08;;;23.77;46.27
28027;BME280;15344;52.342;-1.290;2023-05-24T08:37:34;101268.25;;;23.64;47.44
28027;BME280;15344;52.342;-1.290;2023-05-24T08:40:00;101272.79;;;22.84;47.20
28027;BME280;15344;52.342;-1.290;2023-05-24T08:42:27;101268.65;;;23.72;44.86
28027;BME280;15344;52.342;-1.290;2023-05-24T08:44:56;101274.87;;;23.01;45.46
28027;BME280;15344;52.342;-1.290;2023-05-24T08:47:19;101276.20;;;21.66;48.50
28027;BME280;15344;52.342;-1.290;2023-05-24T08:49:44;101269.13;;;21.13;49.38
28027;BME280;15344;52.342;-1.290;2023-05-24T08:52:09;101266.58;;;20.83;48.26
28027;BME280;15344;52.342;-1.290;2023-05-24T08:54:35;101261.61;;;23.14;47.02
28027;BME280;15344;52.342;-1.290;2023-05-24T08:57:01;101253.36;;;22.64;45.00
28027;BME280;15344;52.342;-1.290;2023-05-24T08:59:26;101255.74;;;23.57;45.67
28027;BME280;15344;52.342;-1.290;2023-05-24T09:01:53;101257.70;;;25.00;44.64
28027;BME280;15344;52.342;-1.290;2023-05-24T09:04:18;101253.43;;;24.76;41.15
28027;BME280;15344;52.342;-1.290;2023-05-24T09:06:43;101260.54;;;24.16;40.92
28027;BME280;15344;52.342;-1.290;2023-05-24T09:09:09;101260.61;;;24.94;41.67
28027;BME280;15344;52.342;-1.290;2023-05-24T09:11:34;101257.16;;;25.48;41.82
28027;BME280;15344;52.342;-1.290;2023-05-24T09:13:59;101250.19;;;24.42;41.07
28027;BME280;15344;52.342;-1.290;2023-05-24T09:16:25;101248.24;;;25.44;40.35
28027;BME280;15344;52.342;-1.290;2023-05-24T09:18:50;101247.77;;;23.96;41.20
28027;BME280;15344;52.342;-1.290;2023-05-24T09:21:16;101249.28;;;23.89;41.44
28027;BME280;15344;52.342;-1.290;2023-05-24T09:23:43;101250.36;;;26.09;40.00
28027;BME280;15344;52.342;-1.290;2023-05-24T09:26:09;101253.45;;;27.34;40.21
28027;BME280;15344;52.342;-1.290;2023-05-24T09:28:33;101247.81;;;25.50;38.62
28027;BME280;15344;52.342;-1.290;2023-05-24T09:31:00;101246.45;;;25.66;38.78
28027;BME280;15344;52.342;-1.290;2023-05-24T09:33:28;101255.47;;;27.25;36.35
28027;BME280;15344;52.342;-1.290;2023-05-24T09:35:56;101248.10;;;26.03;37.53
28027;BME280;15344;52.342;-1.290;2023-05-24T09:38:17;101252.60;;;25.85;38.67
28027;BME280;15344;52.342;-1.290;2023-05-24T09:40:43;101249.41;;;25.34;38.16
28027;BME280;15344;52.342;-1.290;2023-05-24T09:43:08;101250.72;;;26.71;36.47
28027;BME280;15344;52.342;-1.290;2023-05-24T09:45:40;101248.31;;;26.54;38.08
28027;BME280;15344;52.342;-1.290;2023-05-24T09:47:59;101247.57;;;23.22;40.15
28027;BME280;15344;52.342;-1.290;2023-05-24T09:50:25;101246.98;;;24.32;40.66
28027;BME280;15344;52.342;-1.290;2023-05-24T09:52:50;101246.89;;;26.08;39.27
28027;BME280;15344;52.342;-1.290;2023-05-24T09:55:17;101245.02;;;26.64;37.32
28027;BME280;15344;52.342;-1.290;2023-05-24T09:57:43;101238.76;;;24.94;36.61
28027;BME280;15344;52.342;-1.290;2023-05-24T10:00:08;101242.51;;;26.90;36.65
28027;BME280;15344;52.342;-1.290;2023-05-24T10:02:33;101240.29;;;25.11;36.60
28027;BME280;15344;52.342;-1.290;2023-05-24T10:04:59;101235.87;;;25.74;36.71
28027;BME280;15344;52.342;-1.290;2023-05-24T10:07:24;101235.15;;;25.95;38.44
28027;BME280;15344;52.342;-1.290;2023-05-24T10:09:50;101236.15;;;24.79;38.42
28027;BME280;15344;52.342;-1.290;2023-05-24T10:12:15;101237.05;;;26.05;38.87
28027;BME280;15344;52.342;-1.290;2023-05-24T10:14:42;101233.59;;;25.81;37.55
28027;BME280;15344;52.342;-1.290;2023-05-24T10:17:07;101233.74;;;27.43;36.45
28027;BME280;15344;52.342;-1.290;2023-05-24T10:19:33;101232.17;;;27.42;35.33
28027;BME280;15344;52.342;-1.290;2023-05-24T10:21:59;101233.71;;;26.68;35.64
28027;BME280;15344;52.342;-1.290;2023-05-24T10:24:28;101227.51;;;26.75;37.50
28027;BME280;15344;52.342;-1.290;2023-05-24T10:26:50;101221.71;;;27.39;35.09
28027;BME280;15344;52.342;-1.290;2023-05-24T10:29:23;101219.74;;;28.08;35.09
28027;BME280;15344;52.342;-1.290;2023-05-24T10:31:41;101224.27;;;27.34;34.16
28027;BME280;15344;52.342;-1.290;2023-05-24T10:34:07;101225.16;;;26.91;34.64
28027;BME280;15344;52.342;-1.290;2023-05-24T10:36:32;101221.71;;;28.41;33.17
28027;BME280;15344;52.342;-1.290;2023-05-24T10:38:58;101224.01;;;27.10;34.89
28027;BME280;15344;52.342;-1.290;2023-05-24T10:41:25;101229.07;;;26.36;33.86
28027;BME280;15344;52.342;-1.290;2023-05-24T10:43:50;101225.61;;;27.37;35.02
28027;BME280;15344;52.342;-1.290;2023-05-24T10:46:15;101217.63;;;24.75;34.01
28027;BME280;15344;52.342;-1.290;2023-05-24T10:48:41;101222.62;;;27.03;35.86
28027;BME280;15344;52.342;-1.290;2023-05-24T10:53:37;101216.10;;;25.38;35.89
28027;BME280;15344;52.342;-1.290;2023-05-24T10:56:00;101214.36;;;22.92;38.57
28027;BME280;15344;52.342;-1.290;2023-05-24T10:58:43;101212.60;;;25.79;34.98
28027;BME280;15344;52.342;-1.290;2023-05-24T11:00:51;101212.41;;;26.46;34.94
28027;BME280;15344;52.342;-1.290;2023-05-24T11:03:14;101211.32;;;25.18;35.49
28027;BME280;15344;52.342;-1.290;2023-05-24T11:05:49;101209.66;;;26.59;33.71
28027;BME280;15344;52.342;-1.290;2023-05-24T11:08:06;101215.02;;;26.88;34.29
28027;BME280;15344;52.342;-1.290;2023-05-24T11:10:33;101208.30;;;25.23;35.30
28027;BME280;15344;52.342;-1.290;2023-05-24T11:12:59;101207.05;;;24.99;35.99
28027;BME280;15344;52.342;-1.290;2023-05-24T11:15:23;101212.82;;;24.48;36.55
28027;BME280;15344;52.342;-1.290;2023-05-24T11:20:15;101204.58;;;25.87;34.15
28027;BME280;15344;52.342;-1.290;2023-05-24T11:22:41;101201.76;;;25.20;34.58
28027;BME280;15344;52.342;-1.290;2023-05-24T11:25:07;101198.10;;;24.42;37.45
28027;BME280;15344;52.342;-1.290;2023-05-24T11:27:32;101203.85;;;26.65;34.93
28027;BME280;15344;52.342;-1.290;2023-05-24T11:29:58;101197.56;;;23.03;34.30
28027;BME280;15344;52.342;-1.290;2023-05-24T11:32:23;101201.37;;;25.11;32.76
28027;BME280;15344;52.342;-1.290;2023-05-24T11:34:49;101206.78;;;24.57;34.01
28027;BME280;15344;52.342;-1.290;2023-05-24T11:37:16;101205.59;;;24.34;34.66
28027;BME280;15344;52.342;-1.290;2023-05-24T11:39:42;101206.56;;;23.47;35.05
28027;BME280;15344;52.342;-1.290;2023-05-24T11:42:07;101211.37;;;23.01;38.90
28027;BME280;15344;52.342;-1.290;2023-05-24T11:44:34;101210.19;;;23.81;34.29
28027;BME280;15344;52.342;-1.290;2023-05-24T11:46:59;101211.26;;;25.20;37.10
28027;BME280;15344;52.342;-1.290;2023-05-24T11:49:24;101207.98;;;22.82;37.26
28027;BME280;15344;52.342;-1.290;2023-05-24T11:51:53;101206.11;;;24.40;37.25
28027;BME280;15344;52.342;-1.290;2023-05-24T11:54:18;101204.30;;;24.86;37.91
28027;BME280;15344;52.342;-1.290;2023-05-24T11:56:42;101210.91;;;23.42;34.82
28027;BME280;15344;52.342;-1.290;2023-05-24T11:59:13;101213.41;;;23.50;35.62
28027;BME280;15344;52.342;-1.290;2023-05-24T12:01:33;101211.60;;;23.27;35.47
28027;BME280;15344;52.342;-1.290;2023-05-24T12:03:59;101214.05;;;24.15;35.25
28027;BME280;15344;52.342;-1.290;2023-05-24T12:06:34;101213.31;;;23.55;36.01
28027;BME280;15344;52.342;-1.290;2023-05-24T12:08:51;101213.86;;;24.41;38.18
28027;BME280;15344;52.342;-1.290;2023-05-24T12:11:17;101215.89;;;23.86;34.91
28027;BME280;15344;52.342;-1.290;2023-05-24T12:13:42;101209.91;;;24.09;33.64
28027;BME280;15344;52.342;-1.290;2023-05-24T12:16:10;101206.49;;;25.81;36.88
28027;BME280;15344;52.342;-1.290;2023-05-24T12:18:35;101204.58;;;25.12;36.19
28027;BME280;15344;52.342;-1.290;2023-05-24T12:21:00;101199.13;;;25.92;34.69
28027;BME280;15344;52.342;-1.290;2023-05-24T12:23:26;101206.42;;;24.15;33.80
28027;BME280;15344;52.342;-1.290;2023-05-24T12:25:57;101201.24;;;23.49;35.55
28027;BME280;15344;52.342;-1.290;2023-05-24T12:28:19;101206.74;;;22.52;36.11
28027;BME280;15344;52.342;-1.290;2023-05-24T12:30:43;101198.57;;;22.50;37.16
28027;BME280;15344;52.342;-1.290;2023-05-24T12:33:09;101195.57;;;24.27;36.71
28027;BME280;15344;52.342;-1.290;2023-05-24T12:35:35;101195.44;;;23.19;36.98